Latest tweets that mention www.meteo.dz

Schiphol Meteo

#MAASTRICHT EHBK 021725Z AUTO 03009KT 5000 BR FEW010 OVC022 01/M01 Q1015 BECMG 4000 -DZ BKN012 #METEOhttps://twitter.com/AMS_wx

2 weeks ago

Schiphol Meteo

#MAASTRICHT EHBK 020555Z AUTO 05006KT 020V080 1800 BR SCT001 BKN003 OVC004 01/01 Q1011 TEMPO 1000 -DZ #METEOhttps://twitter.com/AMS_wx

2 weeks ago

Afraze

#DZ Alerte météo : Pluies orageuses sur l’Ouest du pays http://t.co/Ynl9IsjDWfhttps://twitter.com/Afraze_dz

3 weeks ago

fibladi actualité

Alerte météo : Pluies orageuses sur l’Ouest du pays http://t.co/zc5R1LdojO | https://t.co/EF4ILT0jaChttps://twitter.com/fibladifrnews

3 weeks ago

meteo_mobile

MODERATE DAUH Monthly #Record #crosswind of 24.2 KT @ HASSI-MESSAOUD, DZ ✈ http://t.co/QAFrdDUVdihttps://twitter.com/meteo_mobile

3 weeks ago

Latest tweets that mention “BIENVENUE A METEO.DZ”

Jack Gilinsky

Retweet this tweet and tweet: https://t.co/aeFhSsJkP7 #RWYA for a follow :)

https://twitter.com/jackgilinsky

2 weeks ago

Cameron Dallas

Following people now! @ExpelledMovie Tweet #8DaysForExpelledMovie a lot & I'll follow you ☺️

https://twitter.com/camerondallas

2 weeks ago

5 Seconds of Summer

We're in San Francisco, I'm already havin a good time...

https://twitter.com/5SOS

2 weeks ago

Isabel Abaíd

RT @ElMuroZac: Con un donativo de 100 pesos puedes adquirir música de navidad y contribuir para darle voz a quien no la tiene.... http://t.…

https://twitter.com/Ladybug_IS

2 weeks ago

Jαѕмιиє...

RT @Laceup_: Lil boy never been a gangsta

https://twitter.com/Dequise2x

2 weeks ago